Time;durP1;ratioP1;P1;durP2;ratioP2;P2;SDS_P1;SDS_P2;PMS_P1;PMS_P2;Temp;Humidity;BMP_temperature;BMP_pressure;BME280_temperature;BME280_humidity;BME280_pressure;Samples;Min_cycle;Max_cycle;Signal;HPM_P1;HPM_P2
2021/05/05 00:01:31;;;;;;;8.95;4.63;;;;;;;;;;4995833;28;20026;-82
2021/05/05 00:03:57;;;;;;;10.35;4.70;;;;;;;;;;4993860;28;20038;-83
2021/05/05 00:06:23;;;;;;;7.53;5.00;;;;;;;;;;4999588;28;20114;-83
2021/05/05 00:08:49;;;;;;;7.90;5.22;;;;;;;;;;4996539;28;20030;-83
2021/05/05 00:11:15;;;;;;;8.27;4.75;;;;;;;;;;4997573;28;20113;-83
2021/05/05 00:13:41;;;;;;;9.27;4.75;;;;;;;;;;4980497;28;20105;-82
2021/05/05 00:16:07;;;;;;;8.10;5.10;;;;;;;;;;4992918;28;20114;-82
2021/05/05 00:18:33;;;;;;;8.10;5.55;;;;;;;;;;4999153;28;20057;-83
2021/05/05 00:21:00;;;;;;;7.20;4.80;;;;;;;;;;5003655;28;20033;-82
2021/05/05 00:23:26;;;;;;;6.63;5.18;;;;;;;;;;4985473;28;20030;-82
2021/05/05 00:25:52;;;;;;;9.82;5.03;;;;;;;;;;4995657;28;20056;-82
2021/05/05 00:28:18;;;;;;;7.35;4.95;;;;;;;;;;4993134;28;20054;-82
2021/05/05 00:30:44;;;;;;;8.27;4.88;;;;;;;;;;4996258;28;20042;-82
2021/05/05 00:33:10;;;;;;;7.28;4.97;;;;;;;;;;4998141;28;20030;-84
2021/05/05 00:35:36;;;;;;;7.13;4.75;;;;;;;;;;4980491;28;20026;-83
2021/05/05 00:38:03;;;;;;;8.07;5.07;;;;;;;;;;4996903;28;20030;-84
2021/05/05 00:40:29;;;;;;;6.38;4.68;;;;;;;;;;4979245;28;20022;-83
2021/05/05 00:42:55;;;;;;;7.47;5.05;;;;;;;;;;4993851;28;20038;-83
2021/05/05 00:45:21;;;;;;;7.18;5.07;;;;;;;;;;4998328;28;20058;-83
2021/05/05 00:47:47;;;;;;;7.65;5.63;;;;;;;;;;4996625;28;20026;-84
2021/05/05 00:50:15;;;;;;;9.80;5.95;;;;;;;;;;4995167;28;20057;-83
2021/05/05 00:52:41;;;;;;;12.45;6.03;;;;;;;;;;4996629;28;20029;-83
2021/05/05 00:55:07;;;;;;;9.88;5.75;;;;;;;;;;4992270;28;20436;-84
2021/05/05 00:57:34;;;;;;;6.10;4.53;;;;;;;;;;4998672;28;20053;-83
2021/05/05 01:00:00;;;;;;;8.02;5.10;;;;;;;;;;4996099;28;20034;-83
2021/05/05 01:02:26;;;;;;;10.85;5.95;;;;;;;;;;4996442;28;20073;-83
2021/05/05 01:04:53;;;;;;;9.52;5.72;;;;;;;;;;4995137;28;20044;-83
2021/05/05 01:07:19;;;;;;;8.60;5.95;;;;;;;;;;4993707;28;20034;-83
2021/05/05 01:09:46;;;;;;;9.07;5.00;;;;;;;;;;4995155;28;20415;-83
2021/05/05 01:12:13;;;;;;;6.57;5.18;;;;;;;;;;4995715;28;20058;-83
2021/05/05 01:14:40;;;;;;;6.78;5.40;;;;;;;;;;4995887;28;20022;-82
2021/05/05 01:17:06;;;;;;;7.10;5.53;;;;;;;;;;4996802;28;20095;-82
2021/05/05 01:19:32;;;;;;;10.50;5.50;;;;;;;;;;4994841;28;20022;-82
2021/05/05 01:21:58;;;;;;;11.10;5.95;;;;;;;;;;4992513;28;20038;-82
2021/05/05 01:24:24;;;;;;;11.15;6.25;;;;;;;;;;4998363;28;20165;-82
2021/05/05 01:26:50;;;;;;;8.00;6.35;;;;;;;;;;4997367;28;20034;-83
2021/05/05 01:29:16;;;;;;;8.50;6.60;;;;;;;;;;4995895;28;20459;-83
2021/05/05 01:31:42;;;;;;;9.52;6.55;;;;;;;;;;4995302;28;20057;-83
2021/05/05 01:34:08;;;;;;;10.85;6.45;;;;;;;;;;4992054;28;20034;-83
2021/05/05 01:36:36;;;;;;;8.30;6.05;;;;;;;;;;4980296;28;20038;-82
2021/05/05 01:39:02;;;;;;;7.87;5.53;;;;;;;;;;4994404;28;20501;-82
2021/05/05 01:41:28;;;;;;;7.95;5.90;;;;;;;;;;4994440;28;20118;-82
2021/05/05 01:43:54;;;;;;;10.35;5.53;;;;;;;;;;4994357;28;20041;-83
2021/05/05 01:46:22;;;;;;;7.43;4.90;;;;;;;;;;4992021;28;20030;-84
2021/05/05 01:48:48;;;;;;;7.30;5.60;;;;;;;;;;5003030;28;20054;-82
2021/05/05 01:51:14;;;;;;;7.85;5.63;;;;;;;;;;4998295;28;20080;-83
2021/05/05 01:53:40;;;;;;;9.63;6.63;;;;;;;;;;4995599;28;20058;-83
2021/05/05 01:56:07;;;;;;;8.10;5.30;;;;;;;;;;4995819;28;20046;-83
2021/05/05 01:58:33;;;;;;;9.50;5.88;;;;;;;;;;4994812;28;20029;-83
2021/05/05 02:01:00;;;;;;;8.65;5.55;;;;;;;;;;4992000;28;20038;-83
2021/05/05 02:03:26;;;;;;;8.48;4.85;;;;;;;;;;4997577;28;20124;-83
2021/05/05 02:05:52;;;;;;;7.97;5.10;;;;;;;;;;4994660;28;20510;-83
2021/05/05 02:08:18;;;;;;;8.77;5.88;;;;;;;;;;4994543;28;20038;-82
2021/05/05 02:10:46;;;;;;;7.63;5.50;;;;;;;;;;4995498;28;20033;-82
2021/05/05 02:13:12;;;;;;;8.13;6.07;;;;;;;;;;4991811;28;20487;-82
2021/05/05 02:15:38;;;;;;;10.45;6.32;;;;;;;;;;4996704;28;20030;-82
2021/05/05 02:18:06;;;;;;;7.78;5.53;;;;;;;;;;4995733;28;20041;-83
2021/05/05 02:20:32;;;;;;;;;;;;;;;;;;4995792;28;20081;-83
2021/05/05 02:22:58;;;;;;;9.95;6.00;;;;;;;;;;4994083;28;19921;-82
2021/05/05 02:25:24;;;;;;;9.10;6.00;;;;;;;;;;4995453;28;20066;-83
2021/05/05 02:27:50;;;;;;;8.30;5.50;;;;;;;;;;4997157;28;20157;-82
2021/05/05 02:30:17;;;;;;;7.55;5.63;;;;;;;;;;4999326;28;20019;-83
2021/05/05 02:32:44;;;;;;;9.02;6.18;;;;;;;;;;4999788;28;20062;-83
2021/05/05 02:35:10;;;;;;;8.50;5.85;;;;;;;;;;4999433;28;20113;-83
2021/05/05 02:37:36;;;;;;;8.20;5.32;;;;;;;;;;4998880;28;20022;-82
2021/05/05 02:40:04;;;;;;;10.85;5.95;;;;;;;;;;4994758;28;20014;-82
2021/05/05 02:42:30;;;;;;;10.07;5.90;;;;;;;;;;5000873;28;20554;-82
2021/05/05 02:44:56;;;;;;;8.77;6.13;;;;;;;;;;4999272;28;20026;-83
2021/05/05 02:47:22;;;;;;;7.97;5.65;;;;;;;;;;4998772;28;20104;-83
2021/05/05 02:49:49;;;;;;;8.73;5.05;;;;;;;;;;4999921;28;20049;-82
2021/05/05 02:52:15;;;;;;;11.90;6.50;;;;;;;;;;4995514;28;20022;-83
2021/05/05 02:54:41;;;;;;;8.70;6.43;;;;;;;;;;4999070;28;20490;-83
2021/05/05 02:57:07;;;;;;;7.93;5.82;;;;;;;;;;5011193;28;20538;-82
2021/05/05 02:59:33;;;;;;;8.35;6.45;;;;;;;;;;4986633;28;20030;-83
2021/05/05 03:01:59;;;;;;;9.27;5.63;;;;;;;;;;4997527;28;20084;-83
2021/05/05 03:04:26;;;;;;;8.82;6.03;;;;;;;;;;4995349;28;20029;-83
2021/05/05 03:06:52;;;;;;;9.43;6.47;;;;;;;;;;4996198;28;20026;-83
2021/05/05 03:09:20;;;;;;;10.25;6.28;;;;;;;;;;4998526;28;20172;-83
2021/05/05 03:11:46;;;;;;;8.60;5.80;;;;;;;;;;4998402;28;20106;-83
2021/05/05 03:14:12;;;;;;;7.53;5.45;;;;;;;;;;4998848;28;20422;-83
2021/05/05 03:16:39;;;;;;;10.82;5.60;;;;;;;;;;4999443;28;20395;-83
2021/05/05 03:19:05;;;;;;;8.32;5.05;;;;;;;;;;4975785;28;20034;-83
2021/05/05 03:21:31;;;;;;;7.82;4.70;;;;;;;;;;4999847;28;20014;-83
2021/05/05 03:23:57;;;;;;;7.10;5.18;;;;;;;;;;5008602;28;20036;-82
2021/05/05 03:26:23;;;;;;;10.15;5.65;;;;;;;;;;5005127;28;20022;-82
2021/05/05 03:28:48;;;;;;;11.70;6.10;;;;;;;;;;4989113;28;20037;-83
2021/05/05 03:31:14;;;;;;;9.35;5.63;;;;;;;;;;4975242;28;20026;-83
2021/05/05 03:33:40;;;;;;;6.82;5.30;;;;;;;;;;4990106;28;20018;-83
2021/05/05 03:36:07;;;;;;;8.90;5.13;;;;;;;;;;4989635;28;20030;-83
2021/05/05 03:38:33;;;;;;;10.25;5.60;;;;;;;;;;4989448;28;20030;-83
2021/05/05 03:41:00;;;;;;;9.18;5.35;;;;;;;;;;4997471;28;20042;-83
2021/05/05 03:43:26;;;;;;;9.02;4.88;;;;;;;;;;4993939;28;20034;-83
2021/05/05 03:45:52;;;;;;;11.50;5.93;;;;;;;;;;4992952;28;20022;-83
2021/05/05 03:48:22;;;;;;;8.07;5.90;;;;;;;;;;4999978;28;20037;-79
2021/05/05 03:50:48;;;;;;;8.85;4.95;;;;;;;;;;4996894;28;20049;-80
2021/05/05 03:53:14;;;;;;;7.35;4.95;;;;;;;;;;4996656;28;20483;-80
2021/05/05 03:55:40;;;;;;;7.90;5.05;;;;;;;;;;4997205;28;20025;-80
2021/05/05 03:58:06;;;;;;;7.22;4.80;;;;;;;;;;4993112;28;20031;-80
2021/05/05 04:00:32;;;;;;;8.82;5.18;;;;;;;;;;4999223;28;20029;-80
2021/05/05 04:02:58;;;;;;;8.38;4.32;;;;;;;;;;4996327;28;20093;-80
2021/05/05 04:05:24;;;;;;;7.72;4.50;;;;;;;;;;4987023;28;20029;-80
2021/05/05 04:07:50;;;;;;;9.65;4.65;;;;;;;;;;5005328;28;20025;-80
2021/05/05 04:10:16;;;;;;;9.65;4.78;;;;;;;;;;4992725;28;20590;-80
2021/05/05 04:12:42;;;;;;;9.98;4.53;;;;;;;;;;5009542;28;20040;-80
2021/05/05 04:15:08;;;;;;;9.90;4.35;;;;;;;;;;4997079;28;20026;-80
2021/05/05 04:17:35;;;;;;;9.82;4.05;;;;;;;;;;4996837;28;20038;-81
2021/05/05 04:20:01;;;;;;;8.77;4.70;;;;;;;;;;4995608;28;20018;-81
2021/05/05 04:22:27;;;;;;;8.07;4.55;;;;;;;;;;4993155;28;20038;-80
2021/05/05 04:24:53;;;;;;;9.90;5.13;;;;;;;;;;4994153;28;20027;-80
2021/05/05 04:27:20;;;;;;;8.80;4.55;;;;;;;;;;4996431;28;20026;-80
2021/05/05 04:29:46;;;;;;;12.60;4.60;;;;;;;;;;4980156;28;20023;-81
2021/05/05 04:32:13;;;;;;;10.18;4.25;;;;;;;;;;4996085;28;20061;-80
2021/05/05 04:34:40;;;;;;;6.55;3.97;;;;;;;;;;4996218;28;20478;-80
2021/05/05 04:37:06;;;;;;;7.40;3.78;;;;;;;;;;4975193;28;20034;-80
2021/05/05 04:39:33;;;;;;;14.70;4.32;;;;;;;;;;4998529;28;20391;-80
2021/05/05 04:41:59;;;;;;;9.63;4.00;;;;;;;;;;4996321;28;20071;-80
2021/05/05 04:44:25;;;;;;;5.80;4.32;;;;;;;;;;4995640;28;20057;-80
2021/05/05 04:46:51;;;;;;;9.00;4.32;;;;;;;;;;4996258;28;20136;-79
2021/05/05 04:49:17;;;;;;;10.45;4.82;;;;;;;;;;4993269;28;20128;-79
2021/05/05 04:51:43;;;;;;;8.35;4.82;;;;;;;;;;4995654;28;20030;-79
2021/05/05 04:54:10;;;;;;;11.02;4.43;;;;;;;;;;4995533;28;20030;-80
2021/05/05 04:56:36;;;;;;;9.57;4.80;;;;;;;;;;4996100;28;20050;-80
2021/05/05 04:59:03;;;;;;;6.90;4.18;;;;;;;;;;4994651;28;20038;-80
2021/05/05 05:01:29;;;;;;;9.65;4.85;;;;;;;;;;4993116;28;20028;-80
2021/05/05 05:03:55;;;;;;;10.68;4.65;;;;;;;;;;4993371;28;20030;-80
2021/05/05 05:06:21;;;;;;;7.72;4.50;;;;;;;;;;4996414;28;20436;-81
2021/05/05 05:08:47;;;;;;;6.97;4.25;;;;;;;;;;4996092;28;20435;-81
2021/05/05 05:11:13;;;;;;;9.10;4.80;;;;;;;;;;4996314;28;20057;-81
2021/05/05 05:13:39;;;;;;;8.95;5.68;;;;;;;;;;4996287;28;20030;-80
2021/05/05 05:16:06;;;;;;;8.43;5.30;;;;;;;;;;4977449;28;20113;-81
2021/05/05 05:18:32;;;;;;;10.48;5.20;;;;;;;;;;4997417;28;20447;-81
2021/05/05 05:20:59;;;;;;;9.95;5.43;;;;;;;;;;4995963;28;20027;-81
2021/05/05 05:23:25;;;;;;;6.90;5.00;;;;;;;;;;4996147;28;20030;-81
2021/05/05 05:25:51;;;;;;;8.82;4.95;;;;;;;;;;4995977;28;20073;-80
2021/05/05 05:28:17;;;;;;;8.68;4.80;;;;;;;;;;4992778;28;20058;-81
2021/05/05 05:30:43;;;;;;;7.75;4.85;;;;;;;;;;4996191;28;20101;-82
2021/05/05 05:33:09;;;;;;;10.85;5.78;;;;;;;;;;4996531;28;20046;-78
2021/05/05 05:35:35;;;;;;;12.10;5.80;;;;;;;;;;4993237;28;20471;-79
2021/05/05 05:38:01;;;;;;;9.45;5.93;;;;;;;;;;4994087;28;20035;-79
2021/05/05 05:40:27;;;;;;;9.55;7.53;;;;;;;;;;4992042;28;20037;-78
2021/05/05 05:42:53;;;;;;;11.90;5.45;;;;;;;;;;4992896;28;20045;-78
2021/05/05 05:45:19;;;;;;;7.85;4.70;;;;;;;;;;4995572;28;20027;-78
2021/05/05 05:47:46;;;;;;;8.32;5.05;;;;;;;;;;4995327;28;20022;-79
2021/05/05 05:50:13;;;;;;;11.75;6.00;;;;;;;;;;4994132;28;20042;-79
2021/05/05 05:52:39;;;;;;;8.30;6.03;;;;;;;;;;4979032;28;20030;-78
2021/05/05 05:55:06;;;;;;;7.70;5.50;;;;;;;;;;4974454;28;20022;-78
2021/05/05 05:57:32;;;;;;;11.40;5.78;;;;;;;;;;4991926;28;21150;-78
2021/05/05 05:59:58;;;;;;;7.75;5.63;;;;;;;;;;4993390;28;20487;-78
2021/05/05 06:02:24;;;;;;;9.27;5.30;;;;;;;;;;4992361;28;20034;-78
2021/05/05 06:04:50;;;;;;;10.05;5.28;;;;;;;;;;5001515;28;20092;-80
2021/05/05 06:07:16;;;;;;;8.70;5.35;;;;;;;;;;4982638;28;20030;-79
2021/05/05 06:09:42;;;;;;;9.45;5.90;;;;;;;;;;5001829;28;20030;-78
2021/05/05 06:12:08;;;;;;;11.18;5.93;;;;;;;;;;5001464;28;20023;-78
2021/05/05 06:14:34;;;;;;;8.52;6.18;;;;;;;;;;5001337;28;20030;-78
2021/05/05 06:17:03;;;;;;;12.27;6.35;;;;;;;;;;5000256;28;20391;-79
2021/05/05 06:19:29;;;;;;;10.73;6.00;;;;;;;;;;4998418;28;20056;-78
2021/05/05 06:21:55;;;;;;;8.98;5.22;;;;;;;;;;4998807;28;20475;-78
2021/05/05 06:24:21;;;;;;;10.27;5.97;;;;;;;;;;5001671;28;20080;-78
2021/05/05 06:26:47;;;;;;;12.63;4.90;;;;;;;;;;5001015;28;20482;-79
2021/05/05 06:29:13;;;;;;;12.05;5.20;;;;;;;;;;5001256;28;20080;-78
2021/05/05 06:31:39;;;;;;;8.90;4.43;;;;;;;;;;5000697;28;20486;-78
2021/05/05 06:34:06;;;;;;;7.05;3.92;;;;;;;;;;4979844;28;20137;-79
2021/05/05 06:36:32;;;;;;;9.25;3.78;;;;;;;;;;5003178;28;20034;-78
2021/05/05 06:38:58;;;;;;;6.80;4.20;;;;;;;;;;5001332;28;20113;-78
2021/05/05 06:41:24;;;;;;;6.85;3.88;;;;;;;;;;5001366;28;20062;-78
2021/05/05 06:43:50;;;;;;;6.35;3.70;;;;;;;;;;4998500;28;20073;-78
2021/05/05 06:46:16;;;;;;;8.10;3.50;;;;;;;;;;4997706;28;20061;-79
2021/05/05 06:48:42;;;;;;;11.10;5.78;;;;;;;;;;5001047;28;20455;-80
2021/05/05 06:51:08;;;;;;;9.02;5.85;;;;;;;;;;5002052;28;20113;-79
2021/05/05 06:53:34;;;;;;;9.00;5.13;;;;;;;;;;5001137;28;20101;-79
2021/05/05 06:56:00;;;;;;;7.85;5.68;;;;;;;;;;4999448;28;20118;-80
2021/05/05 06:58:26;;;;;;;8.52;5.63;;;;;;;;;;4997389;28;20058;-80
2021/05/05 07:00:52;;;;;;;8.43;5.53;;;;;;;;;;4999297;28;20034;-78
2021/05/05 07:03:18;;;;;;;11.23;5.40;;;;;;;;;;5000769;28;20120;-78
2021/05/05 07:05:44;;;;;;;8.25;4.53;;;;;;;;;;5000893;28;20434;-78
2021/05/05 07:08:10;;;;;;;7.50;4.32;;;;;;;;;;5000542;28;20023;-80
2021/05/05 07:10:36;;;;;;;6.82;4.15;;;;;;;;;;4997945;28;20069;-80
2021/05/05 07:13:02;;;;;;;8.00;4.20;;;;;;;;;;4994269;28;20061;-79
2021/05/05 07:15:28;;;;;;;9.48;4.05;;;;;;;;;;4999713;28;20026;-80
2021/05/05 07:17:54;;;;;;;6.95;4.20;;;;;;;;;;4997447;28;20022;-80
2021/05/05 07:20:21;;;;;;;6.47;4.07;;;;;;;;;;4997754;28;20153;-79
2021/05/05 07:22:47;;;;;;;11.40;4.32;;;;;;;;;;4997635;28;20033;-80
2021/05/05 07:25:13;;;;;;;7.20;3.90;;;;;;;;;;4977453;28;20023;-79
2021/05/05 07:27:39;;;;;;;7.88;3.50;;;;;;;;;;4978660;28;20383;-80
2021/05/05 07:30:07;;;;;;;7.13;3.70;;;;;;;;;;5000660;28;20073;-80
2021/05/05 07:32:33;;;;;;;8.60;4.13;;;;;;;;;;4998211;28;20026;-80
2021/05/05 07:35:00;;;;;;;8.48;4.18;;;;;;;;;;5003857;28;20330;-80
2021/05/05 07:46:02;;;;;;;7.30;4.10;;;;;;;;;;5001889;28;20040;-80
2021/05/05 07:48:13;;;;;;;9.60;4.45;;;;;;;;;;5003441;28;20042;-80
2021/05/05 07:50:39;;;;;;;9.02;4.43;;;;;;;;;;4999456;28;20042;-80
2021/05/05 07:53:06;;;;;;;10.98;4.15;;;;;;;;;;4996989;28;20122;-80
2021/05/05 07:55:32;;;;;;;7.68;4.20;;;;;;;;;;4995247;28;20033;-79
2021/05/05 07:57:58;;;;;;;8.95;4.00;;;;;;;;;;4996644;28;20093;-80
2021/05/05 08:00:24;;;;;;;8.27;4.15;;;;;;;;;;4998585;28;20069;-80
2021/05/05 08:02:50;;;;;;;8.55;4.25;;;;;;;;;;4989721;28;20042;-80
2021/05/05 08:05:16;;;;;;;5.60;4.00;;;;;;;;;;4994374;28;20452;-80
2021/05/05 08:07:42;;;;;;;9.00;4.60;;;;;;;;;;4995447;28;20030;-79
2021/05/05 08:10:10;;;;;;;9.27;4.28;;;;;;;;;;4973135;28;20472;-80
2021/05/05 08:12:36;;;;;;;8.77;4.40;;;;;;;;;;5009188;28;20509;-79
2021/05/05 08:15:02;;;;;;;10.57;5.10;;;;;;;;;;4994535;28;20475;-80
2021/05/05 08:17:28;;;;;;;7.63;4.53;;;;;;;;;;4996750;28;20037;-80
2021/05/05 08:19:54;;;;;;;7.97;3.80;;;;;;;;;;5004019;28;20080;-80
2021/05/05 08:22:20;;;;;;;7.95;4.07;;;;;;;;;;4996263;28;20038;-80
2021/05/05 08:24:46;;;;;;;6.07;3.88;;;;;;;;;;4995361;28;20097;-80
2021/05/05 08:27:12;;;;;;;9.93;3.85;;;;;;;;;;4996258;28;20513;-80
2021/05/05 08:29:38;;;;;;;9.80;4.70;;;;;;;;;;4997495;28;20037;-80
2021/05/05 08:32:04;;;;;;;8.43;4.43;;;;;;;;;;5002554;28;20050;-80
2021/05/05 08:34:31;;;;;;;8.43;4.57;;;;;;;;;;4992899;28;20018;-79
2021/05/05 08:36:58;;;;;;;6.45;3.90;;;;;;;;;;4991402;28;20030;-81
2021/05/05 08:39:24;;;;;;;6.47;4.18;;;;;;;;;;4997773;28;20110;-80
2021/05/05 08:41:50;;;;;;;7.43;4.35;;;;;;;;;;4995246;28;20026;-79
2021/05/05 08:44:16;;;;;;;8.50;4.10;;;;;;;;;;4995210;28;20435;-81
2021/05/05 08:46:44;;;;;;;8.60;3.78;;;;;;;;;;4992613;28;20030;-80
2021/05/05 08:49:11;;;;;;;7.93;3.88;;;;;;;;;;5006942;28;20057;-80
2021/05/05 08:51:37;;;;;;;7.70;3.40;;;;;;;;;;4997191;28;20030;-79
2021/05/05 08:54:04;;;;;;;4.47;3.30;;;;;;;;;;4994860;28;20026;-79
2021/05/05 08:56:35;;;;;;;10.52;3.40;;;;;;;;;;4993243;28;20427;-80
2021/05/05 08:59:01;;;;;;;6.05;3.05;;;;;;;;;;4993688;28;20095;-80
2021/05/05 09:01:27;;;;;;;5.88;3.00;;;;;;;;;;4993641;28;20071;-80
2021/05/05 09:03:53;;;;;;;8.50;3.17;;;;;;;;;;4988938;28;20076;-80
2021/05/05 09:06:39;;;;;;;5.60;2.70;;;;;;;;;;4995149;28;20050;-80
2021/05/05 09:09:05;;;;;;;6.47;3.00;;;;;;;;;;5001947;28;20442;-80
2021/05/05 09:11:43;;;;;;;6.97;2.85;;;;;;;;;;4997374;28;20026;-79
2021/05/05 09:14:09;;;;;;;7.50;3.28;;;;;;;;;;4993268;28;20045;-79
2021/05/05 09:16:35;;;;;;;5.38;2.63;;;;;;;;;;4990792;28;20026;-79
2021/05/05 09:19:01;;;;;;;5.18;2.95;;;;;;;;;;5006666;28;20499;-80
2021/05/05 09:21:29;;;;;;;5.63;2.83;;;;;;;;;;4999065;28;20114;-79
2021/05/05 09:24:13;;;;;;;7.05;2.83;;;;;;;;;;5004002;28;20078;-79
2021/05/05 09:26:39;;;;;;;5.93;2.65;;;;;;;;;;4995029;28;20038;-80
2021/05/05 09:29:05;;;;;;;7.95;2.90;;;;;;;;;;5000256;28;20022;-80
2021/05/05 09:31:33;;;;;;;6.85;2.67;;;;;;;;;;5001765;28;20485;-80
2021/05/05 09:33:59;;;;;;;5.13;2.58;;;;;;;;;;4990314;28;20395;-80
2021/05/05 09:36:26;;;;;;;4.97;2.50;;;;;;;;;;4995480;28;20026;-81
2021/05/05 09:38:52;;;;;;;4.75;2.70;;;;;;;;;;4993162;28;20034;-79
2021/05/05 09:41:22;;;;;;;6.43;2.70;;;;;;;;;;4993825;28;20019;-80
2021/05/05 09:43:49;;;;;;;7.35;2.63;;;;;;;;;;4977907;28;20399;-79
2021/05/05 09:46:30;;;;;;;4.40;2.60;;;;;;;;;;4991660;28;20014;-80
2021/05/05 09:49:16;;;;;;;4.35;2.55;;;;;;;;;;4990702;28;20045;-79
2021/05/05 09:51:49;;;;;;;5.38;2.65;;;;;;;;;;4989471;28;20369;-79
2021/05/05 09:54:22;;;;;;;4.25;2.50;;;;;;;;;;5005162;28;20030;-79
2021/05/05 09:56:48;;;;;;;5.70;2.45;;;;;;;;;;4995522;28;20022;-80
2021/05/05 09:59:14;;;;;;;8.00;3.05;;;;;;;;;;4994181;28;20048;-80
2021/05/05 10:01:40;;;;;;;3.78;2.42;;;;;;;;;;4994393;28;20479;-79
2021/05/05 10:04:07;;;;;;;6.40;2.65;;;;;;;;;;4986857;28;20034;-79
2021/05/05 10:06:36;;;;;;;4.32;2.60;;;;;;;;;;4995433;28;20495;-80
2021/05/05 10:09:09;;;;;;;4.57;2.50;;;;;;;;;;4993531;28;20084;-79
2021/05/05 10:11:39;;;;;;;4.50;2.30;;;;;;;;;;4989345;28;20032;-79
2021/05/05 10:14:09;;;;;;;4.97;2.50;;;;;;;;;;4993127;28;20027;-80
2021/05/05 10:16:39;;;;;;;6.28;2.40;;;;;;;;;;4982939;28;20589;-79
2021/05/05 10:19:05;;;;;;;5.13;2.40;;;;;;;;;;4989649;28;20034;-79
2021/05/05 10:21:33;;;;;;;5.72;2.67;;;;;;;;;;4981620;28;20471;-80
2021/05/05 10:24:00;;;;;;;4.40;2.38;;;;;;;;;;4974278;28;20034;-80
2021/05/05 10:26:26;;;;;;;5.10;2.30;;;;;;;;;;4988085;28;20105;-80
2021/05/05 10:28:53;;;;;;;5.50;2.35;;;;;;;;;;4993998;28;20033;-80
2021/05/05 10:31:22;;;;;;;8.43;2.60;;;;;;;;;;4986131;28;20543;-80
2021/05/05 10:33:51;;;;;;;5.38;2.20;;;;;;;;;;4991654;28;20105;-79
2021/05/05 10:36:27;;;;;;;5.38;2.67;;;;;;;;;;4996020;28;20026;-79
2021/05/05 10:38:53;;;;;;;5.25;2.40;;;;;;;;;;4993195;28;20049;-79
2021/05/05 10:41:21;;;;;;;5.90;2.40;;;;;;;;;;4992443;28;20558;-79
2021/05/05 10:43:47;;;;;;;9.68;2.17;;;;;;;;;;4991650;28;20475;-80
2021/05/05 10:46:25;;;;;;;4.45;2.28;;;;;;;;;;4989001;28;20034;-79
2021/05/05 10:49:03;;;;;;;5.00;2.25;;;;;;;;;;4991048;28;20105;-80
2021/05/05 10:51:48;;;;;;;4.93;2.45;;;;;;;;;;4983505;28;20106;-80
2021/05/05 10:54:15;;;;;;;6.50;2.60;;;;;;;;;;5003750;28;20030;-80
2021/05/05 10:56:44;;;;;;;6.55;2.40;;;;;;;;;;4995284;28;20030;-80
2021/05/05 10:59:12;;;;;;;7.50;2.40;;;;;;;;;;5004708;28;20544;-80
2021/05/05 11:01:43;;;;;;;6.57;2.40;;;;;;;;;;5006345;28;20045;-79
2021/05/05 11:04:13;;;;;;;6.32;2.60;;;;;;;;;;4977818;28;20436;-79
2021/05/05 11:06:40;;;;;;;6.15;2.60;;;;;;;;;;4998162;28;20050;-80
2021/05/05 11:09:12;;;;;;;3.67;2.15;;;;;;;;;;4993659;28;20037;-79
2021/05/05 11:11:43;;;;;;;4.25;2.42;;;;;;;;;;4995682;28;20030;-79
2021/05/05 11:14:09;;;;;;;6.68;2.55;;;;;;;;;;4993176;28;20406;-79
2021/05/05 11:17:06;;;;;;;6.47;2.55;;;;;;;;;;5003380;28;20470;-80
2021/05/05 11:22:07;;;;;;;7.10;2.80;;;;;;;;;;5002473;28;20081;-83
2021/05/05 11:24:42;;;;;;;5.60;2.65;;;;;;;;;;4998227;28;20034;-81
2021/05/05 11:27:09;;;;;;;8.32;3.10;;;;;;;;;;4995740;28;20387;-81
2021/05/05 11:29:37;;;;;;;5.50;2.63;;;;;;;;;;4980042;28;20337;-81
2021/05/05 11:32:05;;;;;;;7.75;2.80;;;;;;;;;;4972701;28;20034;-80
2021/05/05 11:34:32;;;;;;;5.05;2.60;;;;;;;;;;4991625;28;20064;-82
2021/05/05 11:36:58;;;;;;;4.78;2.60;;;;;;;;;;4992603;28;20062;-81
2021/05/05 11:39:33;;;;;;;5.45;2.50;;;;;;;;;;4996526;28;20022;-80
2021/05/05 11:42:02;;;;;;;4.35;2.67;;;;;;;;;;4995741;28;20042;-81
2021/05/05 11:44:37;;;;;;;10.38;2.90;;;;;;;;;;4996692;28;20088;-81
2021/05/05 11:47:04;;;;;;;5.97;2.47;;;;;;;;;;4994614;28;20033;-81
2021/05/05 11:49:31;;;;;;;4.47;2.70;;;;;;;;;;5006308;28;20042;-80
2021/05/05 11:51:57;;;;;;;5.50;2.47;;;;;;;;;;4970432;28;25309;-80
2021/05/05 11:54:29;;;;;;;7.80;3.28;;;;;;;;;;4996798;28;20022;-80
2021/05/05 11:57:05;;;;;;;9.25;3.17;;;;;;;;;;4994233;28;20109;-80
2021/05/05 11:59:31;;;;;;;4.90;2.70;;;;;;;;;;4995986;28;20093;-81
2021/05/05 12:02:06;;;;;;;6.40;2.90;;;;;;;;;;4979660;28;20049;-81
2021/05/05 12:04:39;;;;;;;9.15;3.22;;;;;;;;;;4995164;28;20026;-80
2021/05/05 12:07:07;;;;;;;8.35;3.08;;;;;;;;;;4990726;28;20104;-81
2021/05/05 12:09:37;;;;;;;5.30;2.83;;;;;;;;;;4998603;28;20026;-80
2021/05/05 12:12:15;;;;;;;7.03;2.85;;;;;;;;;;4996498;28;20029;-81
2021/05/05 12:14:42;;;;;;;6.38;3.00;;;;;;;;;;4997601;28;20026;-81
2021/05/05 12:19:55;;;;;;;6.88;2.90;;;;;;;;;;4992475;28;20038;-81
2021/05/05 12:22:21;;;;;;;6.68;2.88;;;;;;;;;;4992812;28;20471;-81
2021/05/05 12:25:06;;;;;;;4.53;2.60;;;;;;;;;;5007537;28;20448;-80
2021/05/05 12:27:32;;;;;;;5.22;3.08;;;;;;;;;;4997862;28;20379;-80
2021/05/05 12:30:01;;;;;;;5.30;2.58;;;;;;;;;;4995296;28;20026;-81
2021/05/05 12:32:47;;;;;;;7.20;2.60;;;;;;;;;;4979882;28;20081;-80
2021/05/05 12:35:22;;;;;;;9.60;3.00;;;;;;;;;;4995493;28;20026;-80
2021/05/05 12:37:48;;;;;;;6.05;3.10;;;;;;;;;;4993818;28;20022;-81
2021/05/05 12:40:14;;;;;;;7.03;2.80;;;;;;;;;;4972853;28;20100;-81
2021/05/05 12:42:40;;;;;;;5.88;3.00;;;;;;;;;;4996104;28;20038;-81
2021/05/05 12:45:11;;;;;;;5.03;2.88;;;;;;;;;;4995690;28;20110;-80
2021/05/05 12:47:37;;;;;;;6.72;2.70;;;;;;;;;;4998591;28;20026;-80
2021/05/05 12:50:04;;;;;;;5.78;2.30;;;;;;;;;;4997104;28;20047;-81
2021/05/05 12:52:32;;;;;;;5.53;2.70;;;;;;;;;;4992868;28;20467;-81
2021/05/05 12:55:21;;;;;;;3.50;2.35;;;;;;;;;;4992643;28;20455;-81
2021/05/05 12:58:05;;;;;;;4.60;2.40;;;;;;;;;;4993988;28;20042;-80
2021/05/05 13:00:32;;;;;;;3.83;2.17;;;;;;;;;;4997010;28;20022;-80
2021/05/05 13:03:01;;;;;;;3.88;2.25;;;;;;;;;;4994944;28;20030;-81
2021/05/05 13:05:27;;;;;;;6.70;2.53;;;;;;;;;;4997518;28;20022;-81
2021/05/05 13:07:53;;;;;;;4.05;2.22;;;;;;;;;;4985230;28;20033;-81
2021/05/05 13:10:23;;;;;;;6.65;2.55;;;;;;;;;;4990647;28;20030;-81
2021/05/05 13:13:18;;;;;;;8.20;2.35;;;;;;;;;;4993944;28;20022;-81
2021/05/05 13:32:34;;;;;;;4.05;2.17;;;;;;;;;;4992464;28;20026;-81
2021/05/05 13:35:20;;;;;;;5.70;2.30;;;;;;;;;;4994305;28;20080;-80
2021/05/05 13:37:56;;;;;;;4.57;2.20;;;;;;;;;;4991699;28;20109;-82
2021/05/05 13:40:22;;;;;;;3.92;2.03;;;;;;;;;;4993208;28;20042;-81
2021/05/05 13:42:50;;;;;;;5.63;2.25;;;;;;;;;;5005239;28;20498;-80
2021/05/05 13:45:17;;;;;;;5.28;2.17;;;;;;;;;;4990989;28;20121;-80
2021/05/05 13:47:46;;;;;;;5.20;2.15;;;;;;;;;;4998211;28;20024;-80
2021/05/05 13:50:12;;;;;;;3.40;2.25;;;;;;;;;;4999829;28;20049;-80
2021/05/05 13:52:38;;;;;;;4.82;2.00;;;;;;;;;;4988313;28;20487;-80
2021/05/05 13:55:05;;;;;;;5.10;1.73;;;;;;;;;;5005174;28;20068;-80
2021/05/05 13:57:31;;;;;;;4.80;2.10;;;;;;;;;;4996407;28;20361;-80
2021/05/05 13:59:58;;;;;;;2.78;1.90;;;;;;;;;;4991209;28;20085;-80
2021/05/05 14:02:24;;;;;;;4.10;2.05;;;;;;;;;;4990979;28;20101;-80
2021/05/05 14:04:50;;;;;;;3.30;1.83;;;;;;;;;;4999983;28;20141;-80
2021/05/05 14:07:16;;;;;;;4.50;2.13;;;;;;;;;;4997665;28;20101;-80
2021/05/05 14:09:42;;;;;;;3.45;1.90;;;;;;;;;;4993794;28;20383;-80
2021/05/05 14:12:09;;;;;;;3.80;2.00;;;;;;;;;;4994107;28;20034;-81
2021/05/05 14:14:36;;;;;;;3.55;1.73;;;;;;;;;;4978343;28;20030;-80
2021/05/05 14:17:02;;;;;;;3.88;1.95;;;;;;;;;;4993548;28;20022;-80
2021/05/05 14:19:29;;;;;;;4.57;2.10;;;;;;;;;;5004972;28;20019;-80
2021/05/05 14:21:54;;;;;;;4.80;2.05;;;;;;;;;;4998916;28;20059;-80
2021/05/05 14:24:20;;;;;;;3.15;1.85;;;;;;;;;;4999925;28;20035;-80
2021/05/05 14:26:47;;;;;;;6.10;2.00;;;;;;;;;;4996183;28;20014;-80
2021/05/05 14:29:14;;;;;;;4.68;1.67;;;;;;;;;;4995387;28;20026;-80
2021/05/05 14:31:40;;;;;;;4.20;1.65;;;;;;;;;;4997774;28;20071;-82
2021/05/05 14:34:06;;;;;;;4.07;1.88;;;;;;;;;;4975137;28;20023;-81
2021/05/05 14:36:33;;;;;;;3.50;1.83;;;;;;;;;;4999901;28;20433;-80
2021/05/05 14:38:59;;;;;;;1.75;0.68;;;;;;;;;;4997876;28;20030;-80
2021/05/05 14:41:28;;;;;;;0.93;0.30;;;;;;;;;;5003677;28;20148;-80
2021/05/05 14:44:05;;;;;;;1.02;0.40;;;;;;;;;;5005923;28;20088;-80
2021/05/05 14:49:04;;;;;;;0.55;0.40;;;;;;;;;;5008523;28;20039;-81
2021/05/05 14:51:30;;;;;;;1.27;0.47;;;;;;;;;;4995575;28;20467;-81
2021/05/05 14:53:56;;;;;;;1.05;0.30;;;;;;;;;;4989625;28;20041;-80
2021/05/05 14:56:22;;;;;;;0.73;0.30;;;;;;;;;;4998471;28;20356;-80
2021/05/05 15:01:17;;;;;;;2.25;0.80;;;;;;;;;;4994135;28;20332;-80
2021/05/05 15:03:43;;;;;;;1.30;0.50;;;;;;;;;;4979705;28;20073;-80
2021/05/05 15:06:13;;;;;;;3.60;0.65;;;;;;;;;;4998524;28;20498;-80
2021/05/05 15:08:49;;;;;;;0.32;0.30;;;;;;;;;;4997059;28;20018;-80
2021/05/05 15:16:54;;;;;;;0.85;0.80;;;;;;;;;;4994066;28;20113;-81
2021/05/05 15:29:57;;;;;;;2.55;1.10;;;;;;;;;;4995625;28;20041;-81
2021/05/05 15:38:29;;;;;;;0.98;0.88;;;;;;;;;;4987890;28;20038;-81
2021/05/05 15:41:04;;;;;;;1.20;1.00;;;;;;;;;;4997803;28;20737;-81